Time;durP1;ratioP1;P1;durP2;ratioP2;P2;SDS_P1;SDS_P2;PMS_P1;PMS_P2;Temp;Humidity;BMP_temperature;BMP_pressure;BME280_temperature;BME280_humidity;BME280_pressure;Samples;Min_cycle;Max_cycle;Signal;HPM_P1;HPM_P2
2021/09/06 00:02:05;;;;;;;5.25;3.10;;;;;;;7.41;72.62;101613.97;1740760;82;21343;-55
2021/09/06 00:05:14;;;;;;;6.53;3.77;;;;;;;7.41;72.96;101618.05;1773253;79;21216;-55
2021/09/06 00:08:19;;;;;;;7.75;3.92;;;;;;;7.44;72.97;101614.59;1742166;82;21342;-56
2021/09/06 00:11:26;;;;;;;16.50;5.87;;;;;;;7.48;72.79;101622.86;1740356;82;21264;-56
2021/09/06 00:14:32;;;;;;;7.70;4.25;;;;;;;7.48;72.56;101617.41;1743627;81;21264;-55
2021/09/06 00:17:39;;;;;;;7.05;4.10;;;;;;;7.48;72.37;101611.97;1737635;82;21200;-54
2021/09/06 00:20:46;;;;;;;8.58;4.60;;;;;;;7.46;72.14;101616.70;1737774;81;21235;-54
2021/09/06 00:23:52;;;;;;;8.88;4.50;;;;;;;7.37;72.07;101616.59;1743535;81;21248;-54
2021/09/06 00:27:01;;;;;;;7.35;4.47;;;;;;;7.32;72.42;101616.97;1738874;81;21454;-58
2021/09/06 00:30:07;;;;;;;9.73;4.12;;;;;;;7.31;72.53;101612.48;1737587;81;21197;-55
2021/09/06 00:33:14;;;;;;;9.50;4.70;;;;;;;7.30;72.49;101613.98;1737588;82;21299;-55
2021/09/06 00:36:20;;;;;;;9.13;4.03;;;;;;;7.24;72.50;101617.20;1741071;81;21324;-55
2021/09/06 00:39:26;;;;;;;8.80;4.40;;;;;;;7.19;72.48;101616.22;1738026;81;21351;-56
2021/09/06 00:42:33;;;;;;;9.50;4.55;;;;;;;7.10;72.59;101618.30;1742060;80;21189;-54
2021/09/06 00:45:38;;;;;;;7.90;3.80;;;;;;;7.10;72.78;101614.73;1708919;82;21507;-55
2021/09/06 00:48:44;;;;;;;7.80;3.75;;;;;;;7.10;72.85;101613.37;1768578;79;21746;-55
2021/09/06 00:51:50;;;;;;;8.60;4.00;;;;;;;7.10;72.91;101614.73;1769390;81;21347;-55
2021/09/06 00:54:55;;;;;;;8.78;3.25;;;;;;;7.09;73.04;101616.58;1737592;81;21896;-54
2021/09/06 00:58:01;;;;;;;8.00;3.87;;;;;;;7.10;73.07;101614.73;1741568;81;21718;-56
2021/09/06 01:01:06;;;;;;;7.03;4.12;;;;;;;7.05;72.97;101611.03;1748713;81;21251;-54
2021/09/06 01:04:14;;;;;;;6.12;3.42;;;;;;;7.00;72.92;101614.61;1750262;81;21747;-55
2021/09/06 01:07:22;;;;;;;6.62;4.00;;;;;;;6.95;73.06;101618.67;1703739;81;21224;-54
2021/09/06 01:10:31;;;;;;;5.83;3.50;;;;;;;6.88;73.08;101615.57;1701010;81;21233;-54
2021/09/06 01:13:39;;;;;;;7.47;3.90;;;;;;;6.83;73.28;101614.22;1736499;81;21236;-54
2021/09/06 01:16:45;;;;;;;7.25;4.15;;;;;;;6.75;73.31;101622.12;1727327;82;21197;-55
2021/09/06 01:19:50;;;;;;;11.20;3.77;;;;;;;6.70;73.65;101623.86;1748428;80;21288;-54
2021/09/06 01:22:57;;;;;;;8.90;3.35;;;;;;;6.74;73.74;101630.77;1766325;81;21366;-55
2021/09/06 01:26:08;;;;;;;6.65;3.70;;;;;;;6.76;73.67;101631.53;1738130;81;21422;-56
2021/09/06 01:29:15;;;;;;;4.78;3.20;;;;;;;6.78;73.47;101636.36;1737485;81;21343;-54
2021/09/06 01:32:21;;;;;;;6.62;3.25;;;;;;;6.73;73.24;101637.22;1738105;82;21856;-55
2021/09/06 01:35:27;;;;;;;5.50;3.58;;;;;;;6.62;73.03;101639.03;1740111;80;21974;-54
2021/09/06 01:38:33;;;;;;;5.65;3.62;;;;;;;6.53;73.33;101641.13;1738717;81;21371;-55
2021/09/06 01:41:40;;;;;;;6.87;3.60;;;;;;;6.51;73.70;101637.16;1750799;81;21200;-55
2021/09/06 01:44:40;;;;;;;6.33;3.42;;;;;;;6.53;73.74;101644.72;1769885;79;21224;-54
2021/09/06 01:47:47;;;;;;;7.05;3.98;;;;;;;6.48;73.32;101643.33;1778283;80;21343;-55
2021/09/06 01:50:54;;;;;;;5.45;3.65;;;;;;;6.38;73.39;101639.58;1779601;79;21374;-54
2021/09/06 01:53:59;;;;;;;5.75;3.50;;;;;;;6.32;73.70;101641.41;1769540;80;21209;-55
2021/09/06 01:57:04;;;;;;;7.60;3.27;;;;;;;6.30;74.24;101637.45;1737461;82;21777;-54
2021/09/06 02:00:09;;;;;;;9.75;3.92;;;;;;;6.34;74.41;101646.25;1738004;81;21727;-54
2021/09/06 02:03:15;;;;;;;5.70;3.30;;;;;;;6.37;74.62;101641.45;1727160;82;21741;-54
2021/09/06 02:06:22;;;;;;;5.87;3.77;;;;;;;6.43;74.80;101631.45;1738386;81;21847;-54
2021/09/06 02:09:29;;;;;;;5.28;3.20;;;;;;;6.49;74.99;101642.33;1740319;81;21410;-54
2021/09/06 02:12:37;;;;;;;7.50;3.95;;;;;;;6.52;74.80;101641.61;1708208;84;21284;-54
2021/09/06 02:15:46;;;;;;;6.10;3.55;;;;;;;6.49;74.36;101637.77;1752331;80;21374;-54
2021/09/06 02:18:55;;;;;;;7.17;3.70;;;;;;;6.41;74.16;101636.61;1712680;81;21205;-53
2021/09/06 02:22:02;;;;;;;5.37;3.35;;;;;;;6.36;74.41;101642.93;1738334;81;21185;-55
2021/09/06 02:25:19;;;;;;;25.35;16.07;;;;;;;6.36;74.41;101641.05;1739344;81;21378;-54
2021/09/06 02:28:25;;;;;;;19.57;11.90;;;;;;;6.29;74.12;101659.33;1738344;81;21378;-55
2021/09/06 02:31:32;;;;;;;24.35;12.18;;;;;;;6.23;74.43;101662.05;1739162;81;21355;-55
2021/09/06 02:34:55;;;;;;;28.23;12.60;;;;;;;6.26;74.87;101665.01;1672952;86;21241;-54
2021/09/06 02:38:01;;;;;;;26.40;12.13;;;;;;;6.31;74.93;101660.09;1732572;82;22069;-55
2021/09/06 02:41:07;;;;;;;27.15;13.38;;;;;;;6.32;74.76;101661.33;1708475;84;21411;-56
2021/09/06 02:44:14;;;;;;;31.15;13.85;;;;;;;6.27;74.50;101660.80;1769185;79;21331;-53
2021/09/06 02:47:20;;;;;;;25.70;11.28;;;;;;;6.24;74.44;101669.69;1739174;81;21355;-53
2021/09/06 02:50:26;;;;;;;23.15;11.48;;;;;;;6.18;74.44;101672.39;1737779;81;21197;-54
2021/09/06 02:53:34;;;;;;;24.02;9.38;;;;;;;6.17;74.60;101677.44;1737004;82;21837;-54
2021/09/06 02:56:42;;;;;;;22.05;10.85;;;;;;;6.17;74.77;101674.72;1748437;81;21382;-53
2021/09/06 02:59:49;;;;;;;22.65;11.35;;;;;;;6.22;74.91;101687.95;1774993;79;21362;-54
2021/09/06 03:02:55;;;;;;;20.70;11.83;;;;;;;6.26;74.97;101682.68;1753251;81;21371;-55
2021/09/06 03:06:02;;;;;;;19.65;10.58;;;;;;;6.26;74.65;101679.96;1741471;80;21260;-54
2021/09/06 03:09:10;;;;;;;19.07;8.78;;;;;;;6.26;74.63;101687.64;1741374;81;21834;-53
2021/09/06 03:12:15;;;;;;;14.85;8.40;;;;;;;6.30;74.62;101686.41;1738227;81;21340;-53
2021/09/06 03:15:22;;;;;;;14.05;8.08;;;;;;;6.32;74.55;101683.08;1741902;81;21351;-54
2021/09/06 03:18:28;;;;;;;18.02;7.67;;;;;;;6.35;74.46;101689.64;1737851;82;21383;-54
2021/09/06 03:21:44;;;;;;;15.78;8.55;;;;;;;6.34;74.29;101700.16;1719759;82;21324;-55
2021/09/06 03:24:49;;;;;;;14.85;7.90;;;;;;;6.29;74.08;101698.28;1739978;81;21523;-54
2021/09/06 03:27:55;;;;;;;12.05;6.97;;;;;;;6.23;73.99;101700.11;1746818;81;21204;-54
2021/09/06 03:31:03;;;;;;;13.60;6.87;;;;;;;6.21;74.15;101704.78;1779997;79;21393;-54
2021/09/06 03:34:10;;;;;;;11.97;6.03;;;;;;;6.17;74.17;101701.91;1771350;79;21927;-55
2021/09/06 03:37:17;;;;;;;10.45;5.92;;;;;;;6.20;74.60;101700.31;1769344;80;21351;-55
2021/09/06 03:40:26;;;;;;;10.00;6.00;;;;;;;6.25;74.82;101702.20;1708244;82;21197;-54
2021/09/06 03:43:31;;;;;;;10.25;5.78;;;;;;;6.33;74.99;101707.08;1725556;81;21338;-54
2021/09/06 03:46:37;;;;;;;11.38;6.15;;;;;;;6.38;75.03;101711.16;1769095;80;21239;-53
2021/09/06 03:49:46;;;;;;;13.83;10.32;;;;;;;6.44;75.03;101712.05;1758071;80;21287;-53
2021/09/06 03:52:54;;;;;;;12.13;8.58;;;;;;;6.52;75.19;101719.62;1757444;81;21233;-54
2021/09/06 03:55:59;;;;;;;13.55;8.60;;;;;;;6.59;75.26;101716.33;1756661;80;21189;-54
2021/09/06 03:59:05;;;;;;;12.28;7.97;;;;;;;6.67;75.32;101722.05;1753586;80;21242;-54
2021/09/06 04:02:14;;;;;;;10.85;7.35;;;;;;;6.74;75.36;101719.21;1778650;80;21204;-54
2021/09/06 04:05:20;;;;;;;11.30;6.62;;;;;;;6.82;75.35;101722.20;1769796;79;21224;-53
2021/09/06 04:08:28;;;;;;;10.25;5.58;;;;;;;6.92;75.38;101727.80;1769048;81;21841;-54
2021/09/06 04:11:36;;;;;;;7.53;4.75;;;;;;;6.99;75.39;101729.92;1769010;81;21974;-54
2021/09/06 04:14:43;;;;;;;10.18;5.22;;;;;;;7.08;75.40;101729.70;1787847;78;21378;-53
2021/09/06 04:17:51;;;;;;;7.17;4.28;;;;;;;7.18;75.40;101737.02;1800776;79;21340;-54
2021/09/06 04:20:58;;;;;;;7.67;4.92;;;;;;;7.26;75.44;101729.11;1800656;78;21418;-54
2021/09/06 04:24:03;;;;;;;6.30;4.42;;;;;;;7.36;75.44;101733.33;1800827;78;21374;-54
2021/09/06 04:27:10;;;;;;;8.65;4.97;;;;;;;7.45;75.45;101740.78;1757622;79;21844;-54
2021/09/06 04:30:18;;;;;;;9.30;4.60;;;;;;;7.54;75.52;101744.12;1768279;80;21933;-55
2021/09/06 04:33:26;;;;;;;8.85;5.42;;;;;;;7.64;75.55;101744.61;1737936;82;21853;-54
2021/09/06 04:36:31;;;;;;;7.47;4.75;;;;;;;7.74;75.55;101747.45;1725895;81;21204;-53
2021/09/06 04:39:36;;;;;;;12.60;4.67;;;;;;;7.85;75.57;101746.61;1740355;80;21342;-53
2021/09/06 04:42:43;;;;;;;12.10;5.03;;;;;;;7.96;75.59;101750.69;1750706;81;21351;-53
2021/09/06 04:45:48;;;;;;;9.78;4.53;;;;;;;8.06;75.46;101745.70;1765425;80;21332;-53
2021/09/06 04:48:54;;;;;;;7.00;4.10;;;;;;;8.18;75.39;101750.64;1774267;79;21218;-54
2021/09/06 04:51:58;;;;;;;5.97;4.30;;;;;;;8.27;75.31;101745.81;1728058;82;21197;-55
2021/09/06 04:55:05;;;;;;;9.43;4.62;;;;;;;8.37;75.27;101741.33;1661683;85;21808;-54
2021/09/06 04:58:10;;;;;;;5.92;4.10;;;;;;;8.49;75.20;101748.47;1676487;84;21593;-54
2021/09/06 05:01:18;;;;;;;5.78;4.15;;;;;;;8.61;75.06;101750.19;1690813;84;22080;-54
2021/09/06 05:04:24;;;;;;;5.95;3.92;;;;;;;8.71;74.99;101753.84;1728531;82;21280;-54
2021/09/06 05:07:31;;;;;;;7.37;3.98;;;;;;;8.84;74.96;101761.36;1734654;80;21727;-54
2021/09/06 05:10:36;;;;;;;7.03;3.85;;;;;;;8.95;74.93;101755.36;1728732;81;21518;-53
2021/09/06 05:13:42;;;;;;;8.90;4.30;;;;;;;9.08;74.75;101756.53;1726235;80;21192;-54
2021/09/06 05:16:48;;;;;;;5.92;3.80;;;;;;;9.19;74.66;101755.09;1738222;79;21725;-55
2021/09/06 05:19:53;;;;;;;6.05;3.60;;;;;;;9.31;74.51;101764.94;1722534;82;21244;-54
2021/09/06 05:22:58;;;;;;;5.05;2.92;;;;;;;9.40;74.20;101757.33;1728687;82;21742;-55
2021/09/06 05:26:04;;;;;;;5.35;3.00;;;;;;;9.50;74.10;101759.59;1714466;82;21233;-55
2021/09/06 05:29:10;;;;;;;5.25;2.85;;;;;;;9.60;73.94;101761.89;1723641;82;21737;-56
2021/09/06 05:32:15;;;;;;;3.95;2.35;;;;;;;9.69;73.38;101755.59;1753977;81;22105;-54
2021/09/06 05:35:22;;;;;;;4.47;2.45;;;;;;;9.82;73.00;101756.72;1761549;80;21885;-53
2021/09/06 05:38:27;;;;;;;6.72;2.75;;;;;;;9.91;73.23;101760.86;1760817;81;21394;-54
2021/09/06 05:41:39;;;;;;;5.30;2.35;;;;;;;10.03;73.06;101759.78;1752900;81;21816;-53
2021/09/06 05:44:47;;;;;;;4.60;2.50;;;;;;;10.12;72.52;101763.07;1754544;80;21603;-55
2021/09/06 05:47:53;;;;;;;6.10;2.55;;;;;;;10.22;71.97;101775.41;1751598;81;21632;-54
2021/09/06 05:50:59;;;;;;;6.35;2.40;;;;;;;10.32;71.64;101773.05;1756959;79;21315;-54
2021/09/06 05:54:11;;;;;;;;;;;;;;;10.42;71.44;101772.59;1756654;79;21355;-54
2021/09/06 05:57:17;;;;;;;6.28;2.12;;;;;;;10.53;71.28;101779.30;1752055;81;20278;-54
2021/09/06 06:00:23;;;;;;;4.42;2.02;;;;;;;10.65;70.43;101781.91;1751807;80;21313;-54
2021/09/06 06:03:30;;;;;;;7.47;2.40;;;;;;;10.75;69.91;101770.48;1750770;81;21413;-54
2021/09/06 06:06:38;;;;;;;4.10;2.20;;;;;;;10.86;69.78;101782.66;1747142;81;22092;-54
2021/09/06 06:09:48;;;;;;;4.87;2.08;;;;;;;10.97;69.58;101779.78;1757246;81;21370;-53
2021/09/06 06:12:57;;;;;;;4.22;2.08;;;;;;;11.08;69.50;101779.14;1761180;79;21779;-52
2021/09/06 06:16:04;;;;;;;4.45;2.40;;;;;;;11.21;68.97;101784.31;1767181;79;21201;-53
2021/09/06 06:19:09;;;;;;;3.37;2.10;;;;;;;11.31;68.23;101786.52;1766111;80;21853;-53
2021/09/06 06:22:15;;;;;;;6.00;2.58;;;;;;;11.42;68.07;101779.50;1764960;81;21504;-53
2021/09/06 06:25:23;;;;;;;3.58;2.02;;;;;;;11.55;67.62;101782.80;1764306;81;21209;-54
2021/09/06 06:28:31;;;;;;;7.95;1.98;;;;;;;11.65;67.60;101782.31;1766146;80;21375;-53
2021/09/06 06:31:35;;;;;;;4.17;1.70;;;;;;;11.77;67.57;101781.11;1772606;79;21184;-53
2021/09/06 06:34:40;;;;;;;3.45;1.60;;;;;;;11.89;67.04;101784.88;1783495;79;21587;-54
2021/09/06 06:37:47;;;;;;;3.27;1.70;;;;;;;12.03;66.20;101783.55;1757768;79;22040;-54
2021/09/06 06:40:53;;;;;;;3.52;1.80;;;;;;;12.15;65.07;101791.93;1753050;80;21765;-54
2021/09/06 06:44:01;;;;;;;3.37;1.87;;;;;;;12.27;64.29;101792.11;1747377;79;21225;-54
2021/09/06 06:47:08;;;;;;;4.08;1.60;;;;;;;12.40;63.11;101802.20;1770587;79;21316;-55
2021/09/06 06:50:13;;;;;;;3.75;2.33;;;;;;;12.51;60.31;101797.87;1752583;79;21257;-54
2021/09/06 06:53:19;;;;;;;3.60;1.42;;;;;;;12.58;58.83;101800.38;1791783;79;21335;-54
2021/09/06 06:56:27;;;;;;;1.67;1.12;;;;;;;12.67;58.46;101797.22;1748638;79;21698;-54
2021/09/06 06:59:35;;;;;;;2.02;1.30;;;;;;;12.72;56.89;101798.47;1810263;79;21840;-54
2021/09/06 07:02:42;;;;;;;3.95;1.32;;;;;;;12.79;56.22;101800.96;1790556;79;21197;-54
2021/09/06 07:05:51;;;;;;;2.08;1.30;;;;;;;12.90;55.45;101800.73;1753126;80;21212;-56
2021/09/06 07:08:58;;;;;;;1.80;1.20;;;;;;;12.96;54.84;101790.48;1779341;79;21924;-55
2021/09/06 07:12:04;;;;;;;3.90;1.55;;;;;;;13.09;54.15;101806.61;1792749;79;21155;-55
2021/09/06 07:15:11;;;;;;;2.10;1.30;;;;;;;13.19;52.61;101808.25;1792364;79;21216;-54
2021/09/06 07:18:17;;;;;;;2.40;1.20;;;;;;;13.25;52.72;101780.64;1719320;82;21343;-53
2021/09/06 07:21:22;;;;;;;11.97;1.95;;;;;;;13.31;52.62;101800.63;1753704;81;21184;-54
2021/09/06 07:24:28;;;;;;;1.87;1.10;;;;;;;13.37;50.44;101797.23;1733847;82;22116;-56
2021/09/06 07:27:35;;;;;;;3.15;1.02;;;;;;;13.40;50.14;101792.28;1729644;82;21204;-56
2021/09/06 07:30:40;;;;;;;2.35;1.12;;;;;;;13.47;50.32;101796.63;1765499;80;21833;-56
2021/09/06 07:33:47;;;;;;;1.65;1.20;;;;;;;13.56;49.10;101794.81;1771333;79;21193;-57
2021/09/06 07:36:53;;;;;;;2.05;1.02;;;;;;;13.64;48.77;101803.13;1770982;79;21703;-56
2021/09/06 07:39:59;;;;;;;1.47;1.00;;;;;;;13.73;47.87;101803.00;1767204;80;21348;-57
2021/09/06 07:43:07;;;;;;;3.90;0.95;;;;;;;13.76;47.41;101786.70;1737524;82;21255;-55
2021/09/06 07:46:13;;;;;;;2.55;1.35;;;;;;;13.81;46.90;101795.33;1730271;82;21400;-56
2021/09/06 07:49:21;;;;;;;1.80;1.15;;;;;;;13.89;46.80;101796.77;1723959;83;21878;-56
2021/09/06 07:52:27;;;;;;;2.58;0.80;;;;;;;13.98;46.14;101797.16;1796719;78;21714;-54
2021/09/06 07:55:34;;;;;;;9.73;1.67;;;;;;;14.04;45.28;101789.61;1803101;79;21228;-55
2021/09/06 07:58:40;;;;;;;2.62;1.30;;;;;;;14.08;44.95;101795.99;1802772;78;21311;-55
2021/09/06 08:01:48;;;;;;;2.83;1.37;;;;;;;14.14;45.14;101797.25;1804698;79;21342;-54
2021/09/06 08:04:57;;;;;;;4.40;1.82;;;;;;;14.26;44.72;101798.70;1771102;79;21189;-55
2021/09/06 08:08:04;;;;;;;1.60;1.20;;;;;;;14.29;44.70;101790.98;1771387;80;21324;-55
2021/09/06 08:11:09;;;;;;;5.20;3.33;;;;;;;14.35;44.90;101790.30;1803142;78;21236;-54
2021/09/06 08:14:15;;;;;;;1.37;0.95;;;;;;;14.44;44.21;101790.71;1804044;79;21357;-56
2021/09/06 08:17:21;;;;;;;4.00;1.20;;;;;;;14.43;42.97;101785.36;1804347;79;21675;-54
2021/09/06 08:20:27;;;;;;;4.33;1.32;;;;;;;14.39;43.10;101784.83;1768886;81;21212;-56
2021/09/06 08:23:34;;;;;;;2.10;1.10;;;;;;;14.48;43.14;101783.82;1769812;80;21240;-56
2021/09/06 08:26:43;;;;;;;2.15;1.20;;;;;;;14.64;43.49;101787.13;1768811;81;21260;-53
2021/09/06 08:29:50;;;;;;;2.25;1.12;;;;;;;14.76;42.95;101780.30;1767085;80;21788;-55
2021/09/06 08:32:55;;;;;;;3.70;1.10;;;;;;;14.91;42.51;101792.38;1746513;81;21610;-55
2021/09/06 08:36:01;;;;;;;2.55;1.10;;;;;;;15.01;42.48;101783.44;1751601;79;21228;-55
2021/09/06 08:39:09;;;;;;;2.08;1.55;;;;;;;15.10;42.09;101785.16;1755897;81;21817;-55
2021/09/06 08:42:18;;;;;;;3.67;1.70;;;;;;;15.29;42.00;101777.05;1731574;82;21530;-55
2021/09/06 08:45:25;;;;;;;1.52;1.20;;;;;;;15.42;40.95;101785.21;1739761;81;21205;-56
2021/09/06 08:48:31;;;;;;;4.37;1.57;;;;;;;15.36;40.86;101780.36;1740257;81;21185;-55
2021/09/06 08:51:38;;;;;;;1.30;0.90;;;;;;;15.26;40.70;101782.42;1716852;82;21224;-55
2021/09/06 08:54:45;;;;;;;2.25;1.02;;;;;;;15.26;40.99;101770.50;1752036;79;21745;-54
2021/09/06 08:57:51;;;;;;;2.08;1.00;;;;;;;15.42;40.78;101766.40;1796265;79;21853;-54
2021/09/06 09:01:01;;;;;;;2.22;1.60;;;;;;;15.55;40.52;101764.85;1795039;79;21243;-53
2021/09/06 09:04:31;;;;;;;2.17;1.32;;;;;;;15.72;40.19;101762.91;1781755;78;21758;-55
2021/09/06 09:07:55;;;;;;;2.10;1.25;;;;;;;15.76;40.07;101753.25;1755113;81;21325;-55
2021/09/06 09:11:09;;;;;;;2.15;1.37;;;;;;;15.98;41.06;101757.48;1764932;79;21212;-53
2021/09/06 09:14:20;;;;;;;2.50;1.45;;;;;;;16.26;40.47;101770.35;1750212;80;21212;-55
2021/09/06 09:17:34;;;;;;;4.05;2.27;;;;;;;16.30;38.91;101766.17;1767695;79;21182;-55
2021/09/06 09:20:51;;;;;;;6.17;2.58;;;;;;;16.25;38.63;101763.95;1767708;79;21320;-54
2021/09/06 09:24:01;;;;;;;6.15;4.20;;;;;;;16.14;38.78;101760.20;1764822;80;21244;-55
2021/09/06 09:27:20;;;;;;;3.37;1.42;;;;;;;16.13;39.15;101760.38;1763598;81;21734;-55
2021/09/06 09:30:32;;;;;;;4.37;1.42;;;;;;;16.18;39.02;101757.94;1749078;81;21801;-54
2021/09/06 09:33:58;;;;;;;3.15;1.55;;;;;;;16.23;39.10;101761.91;1747876;80;21319;-55
2021/09/06 09:37:07;;;;;;;5.55;3.02;;;;;;;16.22;38.83;101763.47;1750103;80;21246;-54
2021/09/06 09:40:17;;;;;;;5.87;3.98;;;;;;;16.10;39.33;101765.75;1752321;80;21185;-55
2021/09/06 09:43:22;;;;;;;3.95;2.05;;;;;;;16.11;39.55;101771.61;1753132;82;21354;-54
2021/09/06 09:46:28;;;;;;;2.20;1.35;;;;;;;16.18;39.04;101757.44;1753287;82;21326;-54
2021/09/06 09:49:37;;;;;;;1.67;0.98;;;;;;;16.30;38.96;101753.23;1799844;78;21837;-54
2021/09/06 09:52:42;;;;;;;2.33;0.93;;;;;;;16.46;38.66;101757.84;1800718;79;21343;-55
2021/09/06 09:55:50;;;;;;;3.27;1.85;;;;;;;16.64;38.31;101756.19;1762426;80;21812;-54
2021/09/06 09:58:58;;;;;;;1.95;1.30;;;;;;;16.68;37.66;101763.09;1778141;79;21346;-53
2021/09/06 10:02:18;;;;;;;3.42;1.30;;;;;;;16.60;37.71;101757.11;1776080;80;21205;-54
2021/09/06 10:05:31;;;;;;;7.60;5.03;;;;;;;16.57;38.08;101753.83;1761164;81;21729;-53
2021/09/06 10:08:38;;;;;;;24.23;11.55;;;;;;;16.58;38.72;101762.45;1776570;80;21281;-53
2021/09/06 10:11:50;;;;;;;10.55;5.35;;;;;;;16.69;38.76;101756.52;1775747;80;21340;-52
2021/09/06 10:14:58;;;;;;;4.05;1.67;;;;;;;16.77;37.23;101762.00;1772756;80;21241;-52
2021/09/06 10:18:04;;;;;;;4.05;2.15;;;;;;;16.72;36.52;101761.17;1765208;81;21762;-53
2021/09/06 10:21:23;;;;;;;3.55;1.12;;;;;;;16.60;36.41;101753.47;1748623;80;21201;-52
2021/09/06 10:24:30;;;;;;;4.90;1.30;;;;;;;16.58;36.44;101750.02;1764499;79;21228;-54
2021/09/06 10:27:37;;;;;;;3.72;1.75;;;;;;;16.57;36.81;101748.30;1737405;82;21200;-54
2021/09/06 10:30:53;;;;;;;3.70;1.52;;;;;;;16.60;37.33;101746.55;1738292;81;21225;-54
2021/09/06 10:34:08;;;;;;;4.47;2.00;;;;;;;16.70;37.68;101741.66;1738969;81;21219;-55
2021/09/06 10:37:17;;;;;;;1.87;1.10;;;;;;;16.78;37.11;101747.11;1728864;81;21219;-54
2021/09/06 10:40:25;;;;;;;4.35;1.17;;;;;;;16.76;36.69;101745.08;1737418;81;21255;-54
2021/09/06 10:43:32;;;;;;;3.65;1.10;;;;;;;16.75;36.67;101755.78;1738716;82;21240;-54
2021/09/06 10:46:39;;;;;;;1.47;1.10;;;;;;;16.68;35.80;101754.26;1768295;80;21277;-54
2021/09/06 10:49:48;;;;;;;2.65;1.62;;;;;;;16.59;35.80;101755.36;1755856;81;21255;-54
2021/09/06 10:52:57;;;;;;;8.50;1.45;;;;;;;16.50;35.37;101759.22;1766114;80;21165;-55
2021/09/06 10:56:05;;;;;;;7.53;1.45;;;;;;;16.40;35.43;101753.01;1779936;78;21207;-56
2021/09/06 10:59:11;;;;;;;2.33;1.07;;;;;;;16.39;35.89;101746.61;1786160;79;21256;-54
2021/09/06 11:02:17;;;;;;;1.92;0.95;;;;;;;16.44;36.08;101749.73;1781257;79;21204;-52
2021/09/06 11:05:26;;;;;;;2.72;1.20;;;;;;;16.49;36.03;101748.34;1765858;79;21718;-52
2021/09/06 11:08:36;;;;;;;0.80;0.72;;;;;;;16.49;36.22;101752.49;1749118;80;21248;-53
2021/09/06 11:11:45;;;;;;;2.98;1.57;;;;;;;16.47;35.66;101757.33;1750699;81;21232;-53
2021/09/06 11:14:53;;;;;;;5.33;1.60;;;;;;;16.48;36.00;101753.52;1740080;81;21216;-53
2021/09/06 11:18:08;;;;;;;3.20;1.50;;;;;;;16.58;35.84;101766.09;1712731;83;21204;-53
2021/09/06 11:21:15;;;;;;;2.40;1.55;;;;;;;16.51;35.41;101752.64;1795420;78;21447;-53
2021/09/06 11:24:21;;;;;;;3.10;1.20;;;;;;;16.39;35.89;101757.66;1792387;80;21312;-54
2021/09/06 11:27:36;;;;;;;1.32;1.15;;;;;;;16.39;36.51;101753.52;1790919;79;21259;-54
2021/09/06 11:30:43;;;;;;;2.95;1.20;;;;;;;16.43;36.36;101761.81;1764398;81;21202;-53
2021/09/06 11:33:49;;;;;;;3.05;1.00;;;;;;;16.40;35.97;101755.27;1759568;80;21196;-53
2021/09/06 11:36:55;;;;;;;5.50;1.50;;;;;;;16.39;36.23;101754.06;1736393;80;22147;-54
2021/09/06 11:40:00;;;;;;;6.33;1.40;;;;;;;16.42;35.66;101755.95;1814463;78;21205;-53
2021/09/06 11:43:05;;;;;;;3.37;1.42;;;;;;;16.38;35.64;101754.57;1785316;80;21193;-53
2021/09/06 11:46:10;;;;;;;2.50;1.55;;;;;;;16.35;35.69;101754.94;1815179;78;21820;-53
2021/09/06 11:49:17;;;;;;;2.02;1.10;;;;;;;16.30;35.93;101749.59;1761270;80;21208;-52
2021/09/06 11:52:24;;;;;;;1.87;1.10;;;;;;;16.29;36.26;101750.13;1814007;78;21238;-52
2021/09/06 11:55:28;;;;;;;3.58;1.10;;;;;;;16.22;36.61;101738.06;1781426;79;21272;-51
2021/09/06 11:58:39;;;;;;;4.87;1.42;;;;;;;16.15;36.97;101743.98;1733557;82;21717;-51
2021/09/06 12:01:44;;;;;;;5.03;1.40;;;;;;;16.18;37.14;101735.33;1736375;81;21267;-49
2021/09/06 12:04:50;;;;;;;2.17;1.42;;;;;;;16.22;37.00;101737.22;1725483;82;21519;-51
2021/09/06 12:07:59;;;;;;;4.10;1.60;;;;;;;16.23;36.95;101740.31;1756318;80;21197;-50
2021/09/06 12:11:18;;;;;;;3.70;2.00;;;;;;;16.21;37.23;101736.34;1768608;81;21189;-51
2021/09/06 12:14:23;;;;;;;4.20;1.30;;;;;;;16.25;37.02;101733.55;1772007;81;21570;-54
2021/09/06 12:17:31;;;;;;;2.20;1.40;;;;;;;16.30;37.25;101729.73;1731864;81;21195;-54
2021/09/06 12:20:41;;;;;;;2.75;1.52;;;;;;;16.35;37.10;101745.26;1726884;83;21566;-56
2021/09/06 12:23:50;;;;;;;3.05;1.67;;;;;;;16.42;36.81;101735.22;1732037;82;21717;-56
2021/09/06 12:26:55;;;;;;;2.20;1.22;;;;;;;16.48;36.83;101745.22;1734206;82;21769;-54
2021/09/06 12:30:06;;;;;;;3.00;1.70;;;;;;;16.46;36.61;101731.58;1736083;81;21752;-55
2021/09/06 12:33:11;;;;;;;3.40;1.47;;;;;;;16.51;36.93;101729.69;1677079;84;21272;-56
2021/09/06 12:36:18;;;;;;;2.37;1.50;;;;;;;16.61;36.96;101735.81;1693551;83;21760;-55
2021/09/06 12:39:23;;;;;;;3.45;1.87;;;;;;;16.65;36.33;101730.28;1716634;82;21251;-56
2021/09/06 12:42:28;;;;;;;2.72;1.45;;;;;;;16.64;36.41;101728.54;1732372;82;21773;-56
2021/09/06 12:45:34;;;;;;;2.90;1.50;;;;;;;16.66;36.60;101730.61;1740402;81;21216;-55
2021/09/06 12:48:40;;;;;;;2.17;1.30;;;;;;;16.71;36.21;101730.41;1758857;81;21729;-56
2021/09/06 12:51:45;;;;;;;2.65;1.55;;;;;;;16.68;35.84;101729.91;1709380;83;21173;-55
2021/09/06 12:54:51;;;;;;;6.17;1.32;;;;;;;16.58;35.88;101726.00;1731590;82;21768;-55
2021/09/06 12:57:56;;;;;;;6.60;2.42;;;;;;;16.60;35.96;101733.60;1735080;80;21741;-55
2021/09/06 13:01:01;;;;;;;3.45;1.30;;;;;;;16.60;36.21;101732.73;1731602;82;21778;-55
2021/09/06 13:04:07;;;;;;;2.70;1.40;;;;;;;16.64;36.11;101728.03;1749581;81;21255;-54
2021/09/06 13:07:12;;;;;;;3.08;1.60;;;;;;;16.64;36.06;101724.39;1760044;81;21335;-54
2021/09/06 13:10:18;;;;;;;5.58;2.20;;;;;;;16.72;36.23;101722.95;1760005;81;21141;-55
2021/09/06 13:13:27;;;;;;;3.47;1.85;;;;;;;16.75;35.86;101717.05;1762596;81;21137;-55
2021/09/06 13:16:32;;;;;;;3.33;1.65;;;;;;;16.71;35.90;101721.25;1761225;81;21300;-55
2021/09/06 13:19:38;;;;;;;3.40;1.40;;;;;;;16.72;36.15;101715.53;1751446;80;21188;-55
2021/09/06 13:22:44;;;;;;;2.90;1.10;;;;;;;16.83;35.74;101719.77;1717245;82;21178;-55
2021/09/06 13:25:51;;;;;;;2.42;1.30;;;;;;;16.90;35.59;101715.23;1697666;82;21214;-54
2021/09/06 13:28:56;;;;;;;2.27;1.40;;;;;;;16.88;34.92;101721.47;1744729;81;21173;-55
2021/09/06 13:32:02;;;;;;;2.72;1.25;;;;;;;16.74;34.58;101721.75;1723409;82;21731;-56
2021/09/06 13:35:08;;;;;;;5.55;1.30;;;;;;;16.67;34.73;101725.41;1700710;83;21587;-56
2021/09/06 13:38:14;;;;;;;4.55;1.20;;;;;;;16.64;34.92;101726.65;1727000;81;21558;-56
2021/09/06 13:41:20;;;;;;;3.17;1.82;;;;;;;16.60;35.32;101727.20;1729602;83;21697;-55
2021/09/06 13:44:25;;;;;;;3.17;1.50;;;;;;;16.59;35.47;101719.92;1730633;81;21744;-54
2021/09/06 13:47:33;;;;;;;4.58;1.37;;;;;;;16.57;35.70;101724.80;1728811;82;21184;-54
2021/09/06 13:50:40;;;;;;;4.65;1.30;;;;;;;16.58;35.77;101726.51;1730301;82;21207;-55
2021/09/06 13:53:46;;;;;;;2.58;1.45;;;;;;;16.60;36.12;101725.30;1743782;81;21223;-56
2021/09/06 13:56:55;;;;;;;3.65;1.52;;;;;;;16.70;36.31;101736.13;1748418;81;21361;-55
2021/09/06 14:00:00;;;;;;;3.02;1.62;;;;;;;16.78;36.04;101730.52;1744246;80;21292;-55
2021/09/06 14:03:06;;;;;;;3.60;1.62;;;;;;;16.86;36.92;101720.78;1763992;81;21181;-55
2021/09/06 14:06:13;;;;;;;4.28;1.55;;;;;;;16.96;36.70;101722.79;1781527;79;21519;-55
2021/09/06 14:09:19;;;;;;;4.05;1.50;;;;;;;17.02;36.31;101719.28;1772793;78;21812;-55
2021/09/06 14:12:24;;;;;;;3.77;1.67;;;;;;;17.08;35.83;101722.68;1772650;79;21738;-54
2021/09/06 14:15:30;;;;;;;5.10;1.57;;;;;;;17.07;35.94;101728.76;1741267;81;22085;-55
2021/09/06 14:18:37;;;;;;;5.08;2.70;;;;;;;17.08;35.58;101722.17;1750055;81;21191;-59
2021/09/06 14:21:44;;;;;;;2.60;1.55;;;;;;;17.04;35.96;101730.52;1739959;81;21212;-57
2021/09/06 14:24:50;;;;;;;6.70;3.22;;;;;;;17.01;36.48;101725.87;1761506;80;21215;-58
2021/09/06 14:27:57;;;;;;;4.25;2.10;;;;;;;16.98;36.62;101729.84;1757965;81;21308;-57
2021/09/06 14:31:03;;;;;;;6.00;2.08;;;;;;;16.92;36.66;101738.05;1736144;81;21359;-58
2021/09/06 14:34:10;;;;;;;4.47;1.50;;;;;;;16.95;36.88;101730.77;1749324;80;21212;-57